Time;durP1;ratioP1;P1;durP2;ratioP2;P2;SDS_P1;SDS_P2;PMS_P1;PMS_P2;Temp;Humidity;BMP_temperature;BMP_pressure;BME280_temperature;BME280_humidity;BME280_pressure;Samples;Min_cycle;Max_cycle;Signal;HPM_P1;HPM_P2
2023/06/01 00:01:48;;;;;;;15.20;7.03;;;;;;;14.92;100.00;95313.28;5047040;28;20240;-71
2023/06/01 00:04:14;;;;;;;17.07;7.20;;;;;;;15.08;100.00;95304.81;5050179;28;20225;-74
2023/06/01 00:06:40;;;;;;;14.13;7.60;;;;;;;15.15;100.00;95308.19;5061616;28;20225;-74
2023/06/01 00:09:06;;;;;;;13.33;7.83;;;;;;;15.06;100.00;95305.03;5046049;28;20225;-74
2023/06/01 00:11:31;;;;;;;14.97;7.80;;;;;;;15.10;100.00;95300.13;5049628;28;20297;-74
2023/06/01 00:13:57;;;;;;;14.40;7.50;;;;;;;14.93;100.00;95296.44;5046152;28;20229;-74
2023/06/01 00:16:22;;;;;;;17.00;8.40;;;;;;;14.81;100.00;95293.69;5036029;28;20221;-74
2023/06/01 00:18:48;;;;;;;17.03;7.83;;;;;;;14.86;100.00;95299.13;5033299;28;20237;-74
2023/06/01 00:21:13;;;;;;;14.27;8.20;;;;;;;14.80;100.00;95303.44;5052641;28;20225;-74
2023/06/01 00:23:40;;;;;;;17.00;7.53;;;;;;;14.52;100.00;95303.03;5041072;28;20231;-75
2023/06/01 00:26:06;;;;;;;13.00;7.70;;;;;;;14.64;100.00;95303.19;5047690;28;20656;-74
2023/06/01 00:28:32;;;;;;;17.00;7.77;;;;;;;14.74;100.00;95301.66;5034188;28;20703;-74
2023/06/01 00:30:58;;;;;;;15.43;8.10;;;;;;;14.75;100.00;95307.75;5048149;28;20225;-73
2023/06/01 00:33:23;;;;;;;15.57;7.97;;;;;;;14.72;100.00;95306.34;5052738;28;20260;-74
2023/06/01 00:35:49;;;;;;;34.73;7.80;;;;;;;14.70;100.00;95310.22;5056251;28;20233;-74
2023/06/01 00:38:15;;;;;;;16.20;7.50;;;;;;;14.70;100.00;95307.59;5053152;28;20312;-75
2023/06/01 00:40:40;;;;;;;13.77;7.30;;;;;;;14.63;100.00;95302.38;5056643;28;20231;-75
2023/06/01 00:43:06;;;;;;;14.57;7.77;;;;;;;14.53;100.00;95302.03;5046353;28;20240;-75
2023/06/01 00:45:31;;;;;;;15.27;7.60;;;;;;;14.49;100.00;95302.69;5053431;28;20256;-74
2023/06/01 00:47:57;;;;;;;17.07;7.70;;;;;;;14.41;100.00;95303.75;5036536;28;20228;-74
2023/06/01 00:50:22;;;;;;;14.97;8.50;;;;;;;14.31;100.00;95300.78;5030556;28;20221;-75
2023/06/01 00:52:51;;;;;;;13.90;8.10;;;;;;;14.45;100.00;95297.03;5038218;28;20717;-75
2023/06/01 00:55:16;;;;;;;15.10;8.30;;;;;;;14.64;100.00;95290.78;5038360;28;20237;-74
2023/06/01 00:57:43;;;;;;;15.80;8.00;;;;;;;14.61;100.00;95304.41;5055363;28;20599;-74
2023/06/01 01:00:09;;;;;;;13.60;8.00;;;;;;;14.58;100.00;95307.47;5038844;28;20221;-75
2023/06/01 01:02:41;;;;;;;18.00;8.37;;;;;;;14.44;100.00;95305.97;5027656;28;20328;-75
2023/06/01 01:05:10;;;;;;;15.00;8.20;;;;;;;14.33;100.00;95309.25;5040813;28;20236;-75
2023/06/01 01:07:56;;;;;;;17.03;8.13;;;;;;;14.39;100.00;95310.25;5039191;28;20233;-75
2023/06/01 01:10:29;;;;;;;17.10;8.53;;;;;;;14.37;100.00;95304.38;5059145;28;20225;-75
2023/06/01 01:13:21;;;;;;;16.53;8.27;;;;;;;14.21;100.00;95313.56;5050796;28;20318;-73
2023/06/01 01:16:12;;;;;;;13.43;8.20;;;;;;;14.29;100.00;95302.78;5053270;28;20229;-74
2023/06/01 01:18:54;;;;;;;16.77;8.43;;;;;;;14.31;100.00;95311.31;5053190;28;20225;-75
2023/06/01 01:21:30;;;;;;;15.70;7.80;;;;;;;14.39;100.00;95312.88;5041688;28;20231;-74
2023/06/01 01:24:50;;;;;;;15.27;7.67;;;;;;;14.22;100.00;95315.19;5039363;28;20958;-74
2023/06/01 01:27:53;;;;;;;14.07;7.77;;;;;;;14.28;100.00;95310.91;5003662;28;20230;-74
2023/06/01 01:30:20;;;;;;;12.27;7.70;;;;;;;14.39;100.00;95311.06;4995765;28;20222;-74
2023/06/01 01:32:46;;;;;;;14.53;7.90;;;;;;;14.28;100.00;95308.28;5041909;28;20286;-74
2023/06/01 01:35:11;;;;;;;13.90;7.47;;;;;;;14.26;100.00;95310.31;5053273;28;20225;-74
2023/06/01 01:37:37;;;;;;;15.67;7.40;;;;;;;14.27;100.00;95315.34;5036377;28;20221;-75
2023/06/01 01:40:03;;;;;;;15.03;7.87;;;;;;;14.15;100.00;95327.59;5051930;28;20313;-74
2023/06/01 01:42:28;;;;;;;15.50;7.40;;;;;;;14.19;100.00;95307.69;5040047;28;20791;-75
2023/06/01 01:44:54;;;;;;;15.43;7.77;;;;;;;14.16;100.00;95306.28;5035439;28;20228;-75
2023/06/01 01:47:40;;;;;;;14.67;7.30;;;;;;;14.13;100.00;95306.75;5035641;28;20258;-74
2023/06/01 01:50:06;;;;;;;17.40;8.07;;;;;;;14.21;100.00;95313.56;5052291;28;20798;-74
2023/06/01 01:52:33;;;;;;;10.57;7.10;;;;;;;14.14;100.00;95320.69;5035132;28;20229;-73
2023/06/01 01:54:58;;;;;;;14.93;7.17;;;;;;;14.09;100.00;95317.91;5036108;28;20245;-74
2023/06/01 01:57:24;;;;;;;14.10;7.63;;;;;;;14.10;100.00;95322.94;5037902;28;20321;-74
2023/06/01 01:59:49;;;;;;;11.30;7.40;;;;;;;13.91;100.00;95320.41;5039757;28;20221;-74
2023/06/01 02:02:15;;;;;;;17.83;7.83;;;;;;;13.86;100.00;95318.41;5036147;28;20227;-74
2023/06/01 02:04:43;;;;;;;12.87;7.50;;;;;;;13.95;100.00;95319.78;5028804;28;20224;-73
2023/06/01 02:07:09;;;;;;;12.67;7.50;;;;;;;13.99;100.00;95322.81;5036548;28;20228;-74
2023/06/01 02:09:35;;;;;;;12.97;7.30;;;;;;;13.75;100.00;95319.09;5037829;28;20236;-74
2023/06/01 02:12:01;;;;;;;13.20;7.70;;;;;;;13.84;100.00;95324.91;5035930;28;20600;-74
2023/06/01 02:14:27;;;;;;;11.70;7.80;;;;;;;13.87;100.00;95319.22;5038428;28;20662;-74
2023/06/01 02:16:53;;;;;;;13.20;7.90;;;;;;;13.75;100.00;95324.34;5037032;28;20233;-73
2023/06/01 02:19:19;;;;;;;13.87;7.63;;;;;;;13.63;100.00;95325.19;5033798;28;20230;-74
2023/06/01 02:21:44;;;;;;;15.57;7.53;;;;;;;13.68;100.00;95326.19;5073797;28;20271;-74
2023/06/01 02:24:10;;;;;;;13.00;7.40;;;;;;;13.82;100.00;95327.75;5049050;28;20233;-74
2023/06/01 02:26:35;;;;;;;14.90;7.43;;;;;;;13.97;100.00;95322.22;5048994;28;20991;-74
2023/06/01 02:29:07;;;;;;;17.57;7.50;;;;;;;13.70;100.00;95326.78;5030545;28;20232;-74
2023/06/01 02:31:36;;;;;;;12.60;8.30;;;;;;;13.79;100.00;95324.72;5050192;28;20235;-73
2023/06/01 02:34:01;;;;;;;17.00;7.70;;;;;;;13.89;100.00;95330.34;5038814;28;20236;-74
2023/06/01 02:36:28;;;;;;;14.67;7.80;;;;;;;13.81;100.00;95330.56;5055010;28;20251;-74
2023/06/01 02:38:54;;;;;;;15.97;8.07;;;;;;;13.66;100.00;95327.41;5027692;28;20261;-74
2023/06/01 02:41:21;;;;;;;14.90;7.90;;;;;;;13.85;100.00;95331.78;5028937;28;20365;-74
2023/06/01 02:43:47;;;;;;;19.00;7.87;;;;;;;13.81;100.00;95333.22;5040230;28;20279;-74
2023/06/01 02:46:12;;;;;;;15.03;8.17;;;;;;;13.73;100.00;95331.63;5051876;28;20225;-74
2023/06/01 02:48:38;;;;;;;14.90;8.27;;;;;;;13.73;100.00;95336.09;5035856;28;20754;-74
2023/06/01 02:51:03;;;;;;;15.60;8.33;;;;;;;13.90;100.00;95326.72;5037504;28;20268;-74
2023/06/01 02:53:29;;;;;;;15.67;8.37;;;;;;;13.66;100.00;95333.47;5036510;28;20331;-73
2023/06/01 02:55:55;;;;;;;15.47;8.20;;;;;;;13.83;100.00;95324.09;5049443;28;20617;-74
2023/06/01 02:58:20;;;;;;;17.13;8.70;;;;;;;14.01;100.00;95334.75;5050539;28;20742;-74
2023/06/01 03:00:46;;;;;;;20.83;9.37;;;;;;;14.06;100.00;95326.22;5043797;28;20613;-74
2023/06/01 03:03:12;;;;;;;21.10;10.63;;;;;;;14.25;100.00;95329.75;5040371;28;20228;-73
2023/06/01 03:05:37;;;;;;;34.03;12.53;;;;;;;14.38;100.00;95329.69;5020777;28;20235;-73
2023/06/01 03:08:03;;;;;;;42.90;13.80;;;;;;;14.42;100.00;95328.25;5048654;28;20264;-74
2023/06/01 03:10:29;;;;;;;58.47;13.43;;;;;;;14.39;100.00;95320.78;5049271;28;20255;-73
2023/06/01 03:12:54;;;;;;;57.40;14.60;;;;;;;14.43;100.00;95333.31;5034412;28;20237;-74
2023/06/01 03:15:20;;;;;;;55.93;14.17;;;;;;;14.44;100.00;95331.50;5038349;28;20225;-74
2023/06/01 03:17:45;;;;;;;33.70;13.93;;;;;;;14.48;100.00;95333.47;5033797;28;20237;-74
2023/06/01 03:20:14;;;;;;;32.03;13.63;;;;;;;14.51;100.00;95335.69;5036682;28;20498;-75
2023/06/01 03:22:43;;;;;;;29.97;13.67;;;;;;;14.53;100.00;95335.47;5033695;28;20232;-74
2023/06/01 03:25:09;;;;;;;28.47;13.70;;;;;;;14.51;100.00;95346.22;5045944;28;20245;-74
2023/06/01 03:27:35;;;;;;;40.37;13.47;;;;;;;14.38;100.00;95341.03;5038173;28;20225;-73
2023/06/01 03:30:01;;;;;;;31.23;14.07;;;;;;;14.45;100.00;95344.44;5042760;28;20232;-74
2023/06/01 03:32:27;;;;;;;28.97;13.90;;;;;;;14.51;100.00;95338.31;5020336;28;20249;-74
2023/06/01 03:34:52;;;;;;;33.13;14.33;;;;;;;14.57;100.00;95336.66;5042988;28;20232;-75
2023/06/01 03:37:17;;;;;;;26.93;13.47;;;;;;;14.55;100.00;95338.69;5044970;28;20240;-74
2023/06/01 03:39:43;;;;;;;28.43;13.17;;;;;;;14.52;100.00;95339.94;5030303;28;20249;-75
2023/06/01 03:42:09;;;;;;;31.13;14.20;;;;;;;14.59;100.00;95339.91;5034920;28;20240;-74
2023/06/01 03:44:35;;;;;;;31.57;12.87;;;;;;;14.44;100.00;95337.56;5032586;28;20236;-74
2023/06/01 03:47:00;;;;;;;25.37;13.20;;;;;;;14.37;100.00;95344.69;5046570;28;20236;-73
2023/06/01 03:49:26;;;;;;;22.00;12.37;;;;;;;14.42;100.00;95344.06;5050602;28;20220;-74
2023/06/01 03:51:51;;;;;;;25.07;12.73;;;;;;;14.43;100.00;95341.22;5036338;28;20225;-74
2023/06/01 03:54:17;;;;;;;27.73;13.40;;;;;;;14.42;100.00;95336.97;5036196;28;20237;-74
2023/06/01 03:56:42;;;;;;;70.13;14.33;;;;;;;14.26;100.00;95349.81;5032635;28;20224;-74
2023/06/01 03:59:10;;;;;;;30.63;13.83;;;;;;;14.35;100.00;95351.19;5033973;28;20824;-74
2023/06/01 04:01:36;;;;;;;39.57;13.67;;;;;;;14.29;100.00;95349.38;5018093;28;20284;-74
2023/06/01 04:04:04;;;;;;;27.03;12.90;;;;;;;14.44;100.00;95342.03;5019803;28;20944;-74
2023/06/01 04:06:29;;;;;;;25.87;13.57;;;;;;;14.49;100.00;95343.00;5019200;28;20688;-74
2023/06/01 04:08:55;;;;;;;25.40;13.93;;;;;;;14.52;100.00;95347.03;5055463;28;20264;-74
2023/06/01 04:11:22;;;;;;;22.87;12.90;;;;;;;14.72;100.00;95347.69;5038934;28;20228;-74
2023/06/01 04:13:47;;;;;;;23.27;13.20;;;;;;;14.71;100.00;95349.50;5033250;28;20286;-74
2023/06/01 04:16:13;;;;;;;24.53;13.67;;;;;;;14.66;100.00;95351.19;5020701;28;20229;-74
2023/06/01 04:18:38;;;;;;;23.27;13.47;;;;;;;14.77;100.00;95350.50;5018833;28;20667;-73
2023/06/01 04:21:05;;;;;;;25.43;13.97;;;;;;;14.75;100.00;95352.53;5051540;28;20228;-74
2023/06/01 04:23:31;;;;;;;29.90;13.23;;;;;;;14.64;100.00;95353.25;5019236;28;20225;-73
2023/06/01 04:25:59;;;;;;;23.50;13.73;;;;;;;14.84;100.00;95365.25;5028283;28;20244;-73
2023/06/01 04:28:28;;;;;;;23.83;13.87;;;;;;;14.98;100.00;95347.47;5022904;28;20222;-73
2023/06/01 04:30:54;;;;;;;22.63;13.47;;;;;;;15.08;100.00;95349.63;5035361;28;20230;-74
2023/06/01 04:33:20;;;;;;;25.40;13.53;;;;;;;15.11;100.00;95360.56;5036115;28;20278;-73
2023/06/01 04:35:45;;;;;;;25.30;14.00;;;;;;;15.13;100.00;95357.69;5048491;28;20321;-73
2023/06/01 04:38:11;;;;;;;25.57;14.33;;;;;;;15.06;100.00;95364.84;5034653;28;20232;-74
2023/06/01 04:40:37;;;;;;;23.87;13.70;;;;;;;15.07;100.00;95363.84;5022697;28;20222;-72
2023/06/01 04:43:02;;;;;;;28.17;14.27;;;;;;;14.95;100.00;95357.66;5058979;28;20236;-73
2023/06/01 04:45:30;;;;;;;25.53;14.20;;;;;;;15.06;100.00;95359.59;5044523;28;20275;-74
2023/06/01 04:47:57;;;;;;;24.00;14.27;;;;;;;15.05;100.00;95361.41;5041663;28;20256;-74
2023/06/01 04:50:23;;;;;;;23.63;13.87;;;;;;;14.90;100.00;95370.69;5050415;28;20217;-75
2023/06/01 04:52:49;;;;;;;24.13;13.67;;;;;;;14.97;100.00;95368.78;5035602;28;20286;-74
2023/06/01 04:55:16;;;;;;;28.70;14.23;;;;;;;15.06;100.00;95367.50;5054338;28;20224;-73
2023/06/01 04:57:44;;;;;;;27.50;15.30;;;;;;;15.06;100.00;95372.78;5050933;28;20337;-75
2023/06/01 05:00:12;;;;;;;27.63;15.73;;;;;;;15.12;100.00;95370.06;5040498;28;20299;-73
2023/06/01 05:02:38;;;;;;;27.90;15.50;;;;;;;15.14;100.00;95367.22;5023330;28;20291;-75
2023/06/01 05:05:05;;;;;;;28.33;15.57;;;;;;;15.00;100.00;95366.53;5032288;28;20227;-76
2023/06/01 05:07:31;;;;;;;29.07;16.20;;;;;;;15.01;100.00;95381.31;5034866;28;20620;-75
2023/06/01 05:09:57;;;;;;;27.33;15.40;;;;;;;15.08;100.00;95379.44;5050857;28;20229;-75
2023/06/01 05:12:22;;;;;;;28.17;15.67;;;;;;;15.11;100.00;95372.94;5057413;28;20254;-73
2023/06/01 05:14:48;;;;;;;28.53;16.07;;;;;;;15.20;100.00;95377.72;5054284;28;20248;-73
2023/06/01 05:17:14;;;;;;;31.07;16.40;;;;;;;15.24;100.00;95373.63;5040753;28;20625;-73
2023/06/01 05:19:39;;;;;;;30.80;16.50;;;;;;;15.40;100.00;95372.25;5030891;28;20232;-73
2023/06/01 05:22:11;;;;;;;32.47;15.93;;;;;;;15.41;100.00;95373.84;5051727;28;20246;-77
2023/06/01 05:24:37;;;;;;;33.17;17.07;;;;;;;15.55;100.00;95374.59;5021305;28;20315;-74
2023/06/01 05:27:03;;;;;;;27.60;16.13;;;;;;;15.63;100.00;95375.09;5042819;28;20239;-75
2023/06/01 05:29:29;;;;;;;29.87;16.80;;;;;;;15.94;100.00;95367.03;5055133;28;20323;-75
2023/06/01 05:31:54;;;;;;;27.93;16.67;;;;;;;16.23;100.00;95370.72;5057772;28;20237;-74
2023/06/01 05:34:20;;;;;;;29.97;16.63;;;;;;;16.00;100.00;95371.41;5053259;28;20240;-73
2023/06/01 05:36:46;;;;;;;32.40;17.53;;;;;;;15.55;100.00;95366.66;5054354;28;20348;-73
2023/06/01 05:39:11;;;;;;;29.57;16.77;;;;;;;15.59;100.00;95373.13;5049070;28;20637;-73
2023/06/01 05:41:37;;;;;;;30.40;17.37;;;;;;;15.76;100.00;95364.38;5054580;28;20765;-74
2023/06/01 05:44:03;;;;;;;30.60;17.37;;;;;;;15.69;100.00;95371.56;5056900;28;20228;-74
2023/06/01 05:46:29;;;;;;;29.93;18.00;;;;;;;15.58;100.00;95369.66;5043558;28;20297;-73
2023/06/01 05:48:55;;;;;;;33.03;18.93;;;;;;;15.64;100.00;95368.81;5039617;28;20629;-74
2023/06/01 05:51:21;;;;;;;33.20;18.90;;;;;;;15.56;100.00;95371.72;5051831;28;20315;-73
2023/06/01 05:53:46;;;;;;;33.23;18.87;;;;;;;15.73;100.00;95367.47;5056714;28;20693;-73
2023/06/01 05:56:12;;;;;;;35.17;19.73;;;;;;;15.81;100.00;95372.44;5039625;28;20224;-74
2023/06/01 05:58:37;;;;;;;37.63;20.40;;;;;;;15.77;100.00;95366.00;5056151;28;20635;-74
2023/06/01 06:01:03;;;;;;;40.13;20.43;;;;;;;15.82;100.00;95371.44;5042138;28;20252;-73
2023/06/01 06:03:29;;;;;;;38.83;20.30;;;;;;;15.68;100.00;95372.59;5039753;28;20869;-74
2023/06/01 06:05:54;;;;;;;36.57;20.77;;;;;;;15.88;100.00;95373.19;5052948;28;20679;-73
2023/06/01 06:08:20;;;;;;;38.53;22.40;;;;;;;15.99;100.00;95371.63;5026785;28;20232;-73
2023/06/01 06:10:45;;;;;;;39.80;22.17;;;;;;;16.09;100.00;95366.66;5028675;28;20235;-74
2023/06/01 06:13:11;;;;;;;44.77;22.73;;;;;;;16.11;100.00;95373.31;5053214;28;20255;-74
2023/06/01 06:15:37;;;;;;;41.13;23.47;;;;;;;15.98;100.00;95368.19;5030118;28;20258;-72
2023/06/01 06:18:02;;;;;;;40.07;21.57;;;;;;;15.93;100.00;95369.91;5051290;28;20229;-73
2023/06/01 06:20:28;;;;;;;44.13;22.33;;;;;;;16.02;100.00;95363.28;5051765;28;20220;-74
2023/06/01 06:22:53;;;;;;;39.27;21.17;;;;;;;16.05;100.00;95374.19;5053593;28;20237;-74
2023/06/01 06:25:19;;;;;;;38.23;21.60;;;;;;;16.13;100.00;95370.44;5021874;28;20225;-74
2023/06/01 06:27:45;;;;;;;38.03;22.07;;;;;;;16.35;100.00;95368.13;5054932;28;20263;-73
2023/06/01 06:30:11;;;;;;;42.17;22.13;;;;;;;16.29;100.00;95382.25;5026844;28;20225;-73
2023/06/01 06:32:36;;;;;;;50.30;24.13;;;;;;;16.30;100.00;95376.72;5054516;28;20738;-74
2023/06/01 06:35:02;;;;;;;47.40;25.53;;;;;;;16.38;100.00;95370.34;5026083;28;20233;-73
2023/06/01 06:37:30;;;;;;;49.03;25.47;;;;;;;16.44;100.00;95374.72;5055229;28;20228;-73
2023/06/01 06:39:56;;;;;;;50.83;26.67;;;;;;;16.35;100.00;95376.06;5055572;28;20225;-73
2023/06/01 06:42:22;;;;;;;56.70;28.73;;;;;;;16.45;100.00;95378.97;5044616;28;20671;-74
2023/06/01 06:44:48;;;;;;;56.20;28.10;;;;;;;16.50;100.00;95377.25;5051124;28;20289;-74
2023/06/01 06:47:15;;;;;;;61.67;32.67;;;;;;;16.59;100.00;95373.31;5055009;28;20762;-74
2023/06/01 06:49:41;;;;;;;61.03;32.40;;;;;;;16.47;100.00;95369.78;5048825;28;20222;-75
2023/06/01 06:52:08;;;;;;;80.63;40.00;;;;;;;16.66;100.00;95371.38;5038515;28;20244;-74
2023/06/01 06:54:35;;;;;;;71.23;34.00;;;;;;;16.80;100.00;95364.06;5040756;28;20297;-74
2023/06/01 06:57:00;;;;;;;61.73;32.60;;;;;;;16.97;100.00;95364.19;5027095;28;20417;-74
2023/06/01 06:59:26;;;;;;;66.23;33.10;;;;;;;16.96;100.00;95367.84;5043363;28;20709;-74
2023/06/01 07:01:51;;;;;;;65.70;32.97;;;;;;;16.99;100.00;95370.88;5032197;28;20290;-75
2023/06/01 07:04:17;;;;;;;62.80;31.70;;;;;;;17.18;100.00;95382.97;5040579;28;20655;-74
2023/06/01 07:06:42;;;;;;;65.80;34.17;;;;;;;17.20;100.00;95369.50;5048757;28;20237;-73
2023/06/01 07:09:09;;;;;;;67.17;31.10;;;;;;;17.17;100.00;95373.41;5049260;28;20238;-74
2023/06/01 07:11:34;;;;;;;62.63;32.47;;;;;;;17.28;100.00;95364.69;5050917;28;20221;-73
2023/06/01 07:14:00;;;;;;;63.50;30.83;;;;;;;17.34;100.00;95366.41;5020898;28;20228;-73
2023/06/01 07:16:25;;;;;;;65.23;31.33;;;;;;;17.36;100.00;95366.19;5037288;28;20737;-72
2023/06/01 07:18:51;;;;;;;63.47;31.50;;;;;;;17.48;100.00;95367.78;5021242;28;20257;-73
2023/06/01 07:21:17;;;;;;;67.60;32.90;;;;;;;17.61;100.00;95368.59;5052419;28;20225;-73
2023/06/01 07:23:44;;;;;;;75.87;37.10;;;;;;;17.53;100.00;95368.97;5036065;28;20233;-78
2023/06/01 07:26:10;;;;;;;79.10;36.93;;;;;;;17.69;100.00;95357.69;5034488;28;20231;-78
2023/06/01 07:28:35;;;;;;;80.23;37.20;;;;;;;17.78;100.00;95362.38;5016624;28;20229;-78
2023/06/01 07:31:00;;;;;;;80.97;38.10;;;;;;;17.86;100.00;95361.22;5033987;28;20229;-78
2023/06/01 07:33:26;;;;;;;82.60;38.10;;;;;;;17.86;100.00;95361.22;5054709;28;20221;-79
2023/06/01 07:35:53;;;;;;;83.03;38.07;;;;;;;18.00;100.00;95362.56;5051541;28;20224;-78
2023/06/01 07:38:19;;;;;;;77.57;37.27;;;;;;;18.07;100.00;95357.94;5048335;28;20577;-77
2023/06/01 07:40:45;;;;;;;76.80;35.50;;;;;;;17.99;100.00;95364.41;5033696;28;20232;-78
2023/06/01 07:43:11;;;;;;;70.53;34.27;;;;;;;18.00;100.00;95346.69;5053563;28;20221;-78
2023/06/01 07:45:36;;;;;;;75.10;34.83;;;;;;;18.01;100.00;95348.25;5043982;28;20236;-78
2023/06/01 07:48:02;;;;;;;74.57;34.70;;;;;;;18.20;100.00;95351.56;5025599;28;20251;-78
2023/06/01 07:50:31;;;;;;;67.47;32.70;;;;;;;18.35;100.00;95352.66;5052426;28;20229;-79
2023/06/01 07:52:57;;;;;;;62.87;30.87;;;;;;;18.36;100.00;95345.50;5055995;28;20229;-79
2023/06/01 07:55:23;;;;;;;61.23;30.10;;;;;;;18.22;100.00;95339.69;5039195;28;20222;-77
2023/06/01 07:57:48;;;;;;;57.10;29.03;;;;;;;18.45;100.00;95333.47;5035954;28;20233;-79
2023/06/01 08:00:17;;;;;;;54.27;27.87;;;;;;;18.64;100.00;95337.56;5055396;28;20239;-78
2023/06/01 08:02:45;;;;;;;56.67;27.57;;;;;;;18.65;100.00;95339.19;5059736;28;20647;-78
2023/06/01 08:05:11;;;;;;;54.57;27.93;;;;;;;18.63;100.00;95334.09;5039961;28;20315;-79
2023/06/01 08:07:37;;;;;;;53.40;27.37;;;;;;;18.74;100.00;95335.09;5027025;28;20292;-77
2023/06/01 08:10:05;;;;;;;54.60;27.50;;;;;;;18.96;100.00;95337.84;5041552;28;20221;-78
2023/06/01 08:12:31;;;;;;;50.40;25.93;;;;;;;19.02;100.00;95339.53;5056186;28;20228;-79
2023/06/01 08:14:57;;;;;;;52.17;26.63;;;;;;;19.08;100.00;95338.56;5029998;28;20221;-79
2023/06/01 08:17:23;;;;;;;50.43;26.73;;;;;;;19.11;100.00;95333.56;5038150;28;20224;-79
2023/06/01 08:19:48;;;;;;;53.73;26.73;;;;;;;19.22;100.00;95331.88;5042715;28;20699;-79
2023/06/01 08:22:13;;;;;;;50.20;25.87;;;;;;;19.34;100.00;95324.63;5036277;28;20237;-79
2023/06/01 08:24:39;;;;;;;50.30;25.20;;;;;;;19.36;100.00;95322.56;5052370;28;20220;-76
2023/06/01 08:27:20;;;;;;;46.27;24.67;;;;;;;19.36;100.00;95325.22;5038189;28;21083;-79
2023/06/01 08:29:47;;;;;;;46.00;23.47;;;;;;;19.52;100.00;95320.91;5058339;28;20225;-79
2023/06/01 08:32:12;;;;;;;47.67;23.57;;;;;;;19.60;100.00;95313.34;5062858;28;20711;-78
2023/06/01 08:34:38;;;;;;;45.17;23.93;;;;;;;19.59;100.00;95310.91;5037939;28;20232;-79
2023/06/01 08:37:03;;;;;;;43.63;24.37;;;;;;;19.67;100.00;95310.50;5043009;28;20726;-81
2023/06/01 08:39:29;;;;;;;51.27;24.20;;;;;;;19.70;100.00;95313.47;5045814;28;20490;-79
2023/06/01 08:42:07;;;;;;;44.10;23.77;;;;;;;19.83;100.00;95309.63;5028828;28;20237;-77
2023/06/01 08:44:40;;;;;;;48.57;23.90;;;;;;;19.83;100.00;95310.44;5036317;28;20229;-77
2023/06/01 08:47:06;;;;;;;47.83;23.90;;;;;;;19.88;100.00;95307.84;5046568;28;20230;-78
2023/06/01 08:49:32;;;;;;;43.53;23.83;;;;;;;19.98;100.00;95300.00;5050039;28;20239;-78
2023/06/01 08:51:59;;;;;;;42.80;22.03;;;;;;;20.14;100.00;95301.78;5047659;28;20237;-77
2023/06/01 08:54:26;;;;;;;44.17;21.03;;;;;;;20.17;100.00;95295.97;5050636;28;20235;-77
2023/06/01 08:56:51;;;;;;;41.80;21.40;;;;;;;20.28;100.00;95288.91;5021056;28;20271;-78
2023/06/01 08:59:16;;;;;;;41.30;20.93;;;;;;;20.51;100.00;95290.50;5041261;28;20217;-78
2023/06/01 09:01:42;;;;;;;45.17;21.07;;;;;;;20.59;100.00;95282.03;5039182;28;20225;-73
2023/06/01 09:04:09;;;;;;;40.77;21.73;;;;;;;20.72;100.00;95286.94;5053875;28;20229;-74
2023/06/01 09:06:36;;;;;;;41.67;21.80;;;;;;;20.76;100.00;95280.06;5055496;28;20237;-73
2023/06/01 09:09:02;;;;;;;37.07;20.30;;;;;;;20.99;100.00;95279.72;5046515;28;20229;-73
2023/06/01 09:11:28;;;;;;;37.27;20.23;;;;;;;21.12;100.00;95281.97;5018738;28;20229;-74
2023/06/01 09:13:53;;;;;;;39.10;19.50;;;;;;;21.12;100.00;95281.97;5024790;28;20699;-73
2023/06/01 09:16:19;;;;;;;37.00;20.23;;;;;;;21.17;100.00;95278.53;5056752;28;20302;-74
2023/06/01 09:18:53;;;;;;;39.07;20.00;;;;;;;21.09;100.00;95279.81;5030528;28;20230;-73
2023/06/01 09:21:19;;;;;;;40.53;19.40;;;;;;;21.19;98.66;95282.56;5040616;28;20737;-73
2023/06/01 09:23:45;;;;;;;37.57;19.33;;;;;;;21.41;100.00;95279.75;5052307;28;20230;-74
2023/06/01 09:26:11;;;;;;;34.08;18.45;;;;;;;21.52;97.63;95281.41;5034423;28;20331;-74
2023/06/01 09:28:59;;;;;;;37.75;17.95;;;;;;;21.59;97.30;95286.53;5019927;28;20233;-73
2023/06/01 09:31:37;;;;;;;30.57;16.87;;;;;;;21.72;100.00;95276.19;5024882;28;20742;-74
2023/06/01 09:34:02;;;;;;;32.43;16.60;;;;;;;21.70;96.93;95266.84;5037939;28;20656;-74
2023/06/01 09:36:28;;;;;;;31.48;15.57;;;;;;;21.68;88.22;95268.97;5012680;28;21032;-75
2023/06/01 09:39:00;;;;;;;31.42;15.23;;;;;;;21.76;90.80;95263.13;5050962;28;20229;-73
2023/06/01 09:41:26;;;;;;;25.98;14.27;;;;;;;21.87;88.51;95259.50;5034322;28;20257;-74
2023/06/01 09:43:51;;;;;;;24.38;13.05;;;;;;;22.07;91.48;95254.22;5053897;28;20245;-74
2023/06/01 09:46:17;;;;;;;20.83;12.00;;;;;;;22.10;87.88;95251.03;5026650;28;20225;-73
2023/06/01 09:48:44;;;;;;;25.27;11.55;;;;;;;22.15;77.56;95251.03;5035872;28;20221;-73
2023/06/01 09:51:23;;;;;;;21.58;11.40;;;;;;;22.30;80.43;95242.28;5056108;28;20228;-73
2023/06/01 09:53:48;;;;;;;18.33;11.00;;;;;;;22.51;80.47;95238.56;5039054;28;20302;-73
2023/06/01 09:56:13;;;;;;;14.38;9.35;;;;;;;22.84;75.53;95232.72;5037439;28;20236;-72
2023/06/01 09:58:40;;;;;;;14.55;8.02;;;;;;;22.74;72.18;95230.88;5035797;28;20229;-73
2023/06/01 10:01:08;;;;;;;13.77;8.10;;;;;;;22.52;72.45;95237.50;5032735;28;20239;-74
2023/06/01 10:03:34;;;;;;;18.45;9.15;;;;;;;22.22;72.06;95219.59;5043947;28;20237;-73
2023/06/01 10:06:00;;;;;;;17.08;9.48;;;;;;;21.93;77.64;95229.91;5051965;28;20222;-74
2023/06/01 10:08:25;;;;;;;16.20;8.07;;;;;;;21.75;74.97;95226.91;5035260;28;20290;-72
2023/06/01 10:10:51;;;;;;;15.15;7.85;;;;;;;21.67;73.93;95219.41;5054850;28;20240;-74
2023/06/01 10:13:16;;;;;;;15.15;8.15;;;;;;;21.59;74.78;95226.03;5033678;28;20232;-73
2023/06/01 10:15:45;;;;;;;13.10;8.23;;;;;;;21.54;73.27;95220.72;5027095;28;20229;-74
2023/06/01 10:18:10;;;;;;;15.25;8.25;;;;;;;21.57;73.83;95222.81;5024559;28;20225;-73
2023/06/01 10:20:37;;;;;;;13.38;7.68;;;;;;;21.48;77.87;95221.72;5045079;28;20225;-73
2023/06/01 10:23:02;;;;;;;12.57;8.13;;;;;;;21.54;72.44;95222.56;5036502;28;20235;-73
2023/06/01 10:25:40;;;;;;;13.98;8.35;;;;;;;21.45;76.35;95223.03;5043881;28;20225;-74
2023/06/01 10:28:07;;;;;;;15.30;8.85;;;;;;;21.38;78.52;95224.34;5057974;28;20318;-74
2023/06/01 10:30:33;;;;;;;14.18;8.65;;;;;;;21.36;78.66;95224.59;5051773;28;20351;-72
2023/06/01 10:32:59;;;;;;;16.55;8.77;;;;;;;21.45;78.29;95225.72;5050223;28;20740;-73
2023/06/01 10:35:31;;;;;;;13.93;7.63;;;;;;;21.37;74.87;95222.75;5044612;28;20232;-74
2023/06/01 10:38:06;;;;;;;10.20;6.55;;;;;;;21.52;69.28;95222.03;5060097;28;20765;-73
2023/06/01 10:40:33;;;;;;;8.73;5.70;;;;;;;21.49;70.61;95218.78;5061184;28;20319;-73
2023/06/01 10:42:58;;;;;;;8.02;5.72;;;;;;;21.39;69.64;95226.75;5061123;28;20263;-75
2023/06/01 10:45:33;;;;;;;10.10;6.13;;;;;;;21.35;68.68;95225.66;5041832;28;20225;-72
2023/06/01 10:47:58;;;;;;;9.05;5.97;;;;;;;21.24;67.74;95216.03;5059434;28;20670;-73
2023/06/01 10:50:24;;;;;;;10.93;5.68;;;;;;;21.21;66.75;95219.19;5028271;28;20228;-73
2023/06/01 10:52:50;;;;;;;8.45;5.78;;;;;;;21.13;67.65;95211.72;5035603;28;21164;-73
2023/06/01 10:55:16;;;;;;;10.70;6.27;;;;;;;21.10;70.68;95212.22;5042968;28;20220;-73
2023/06/01 10:57:47;;;;;;;10.90;6.70;;;;;;;21.07;71.72;95198.59;5044926;28;20236;-74
2023/06/01 11:00:19;;;;;;;12.80;6.70;;;;;;;21.03;70.53;95202.81;5029921;28;20359;-73
2023/06/01 11:02:54;;;;;;;11.07;6.68;;;;;;;21.03;72.01;95198.31;5051039;28;20241;-74
2023/06/01 11:05:43;;;;;;;13.32;6.97;;;;;;;21.00;71.43;95188.16;5059989;28;20240;-74
2023/06/01 11:08:23;;;;;;;11.83;6.87;;;;;;;21.15;70.31;95185.63;5042027;28;20240;-74
2023/06/01 11:11:09;;;;;;;11.02;6.82;;;;;;;21.21;72.17;95191.75;5025598;28;20306;-73
2023/06/01 11:13:36;;;;;;;12.47;7.13;;;;;;;21.31;71.40;95189.16;5049639;28;20225;-74
2023/06/01 11:16:07;;;;;;;10.80;7.20;;;;;;;21.47;70.28;95191.63;5059661;28;20271;-73